Time;durP1;ratioP1;P1;durP2;ratioP2;P2;SDS_P1;SDS_P2;PMS_P1;PMS_P2;Temp;Humidity;BMP_temperature;BMP_pressure;BME280_temperature;BME280_humidity;BME280_pressure;Samples;Min_cycle;Max_cycle;Signal;HPM_P1;HPM_P2
2023/08/20 00:01:35;;;;;;;13.60;11.97;;;22.20;99.90;;;;;;5034570;28;20445;-62
2023/08/20 00:04:02;;;;;;;14.93;12.87;;;22.20;99.90;;;;;;5034294;28;20457;-63
2023/08/20 00:06:31;;;;;;;12.07;10.87;;;22.20;99.90;;;;;;5034435;28;20449;-62
2023/08/20 00:08:57;;;;;;;19.40;12.53;;;22.20;99.90;;;;;;5034104;28;20444;-61
2023/08/20 00:11:24;;;;;;;16.37;14.67;;;22.10;99.90;;;;;;5034538;28;20562;-61
2023/08/20 00:13:51;;;;;;;15.57;13.77;;;22.10;99.90;;;;;;5035224;28;20461;-61
2023/08/20 00:16:18;;;;;;;17.50;15.50;;;22.10;99.90;;;;;;5035450;28;20473;-62
2023/08/20 00:18:46;;;;;;;15.93;14.23;;;22.00;99.90;;;;;;5034407;28;20445;-62
2023/08/20 00:21:15;;;;;;;18.80;14.60;;;21.90;99.90;;;;;;5034371;28;20619;-61
2023/08/20 00:23:43;;;;;;;19.33;13.67;;;21.90;99.90;;;;;;5033883;28;20473;-63
2023/08/20 00:26:12;;;;;;;15.17;13.50;;;21.90;99.90;;;;;;5035389;28;20464;-61
2023/08/20 00:28:38;;;;;;;15.13;13.60;;;21.80;99.90;;;;;;5038416;28;20894;-62
2023/08/20 00:31:05;;;;;;;15.83;14.13;;;21.80;99.90;;;;;;5037999;28;20507;-61
2023/08/20 00:33:32;;;;;;;13.40;12.00;;;21.80;99.90;;;;;;5037926;28;20463;-62
2023/08/20 00:35:59;;;;;;;19.07;12.87;;;21.80;99.90;;;;;;5038100;28;20961;-62
2023/08/20 00:38:26;;;;;;;16.90;12.37;;;21.70;99.90;;;;;;5038026;28;20480;-61
2023/08/20 00:40:54;;;;;;;13.40;12.07;;;21.70;99.90;;;;;;5037986;28;20447;-61
2023/08/20 00:43:20;;;;;;;14.00;11.90;;;21.70;99.90;;;;;;5038158;28;20467;-61
2023/08/20 00:45:47;;;;;;;12.60;11.27;;;21.60;99.90;;;;;;5038536;28;20448;-62
2023/08/20 00:48:14;;;;;;;12.60;10.40;;;21.60;99.90;;;;;;5037696;28;20433;-61
2023/08/20 00:50:41;;;;;;;10.50;9.13;;;21.60;99.90;;;;;;5037075;28;20445;-61
2023/08/20 00:53:11;;;;;;;9.60;8.60;;;21.50;99.90;;;;;;5039631;28;20472;-62
2023/08/20 00:55:38;;;;;;;10.83;8.10;;;21.50;99.90;;;;;;5038452;28;20480;-61
2023/08/20 00:58:06;;;;;;;11.40;7.70;;;21.40;99.90;;;;;;5037260;28;20503;-61
2023/08/20 01:00:33;;;;;;;8.33;7.17;;;21.40;99.90;;;;;;5037653;28;20453;-61
2023/08/20 01:03:00;;;;;;;8.07;5.77;;;21.30;99.90;;;;;;5037165;28;20468;-61
2023/08/20 01:05:27;;;;;;;9.47;6.40;;;21.30;99.90;;;;;;5037028;28;20941;-60
2023/08/20 01:08:11;;;;;;;6.33;4.90;;;21.30;99.90;;;;;;5037969;28;20437;-61
2023/08/20 01:10:44;;;;;;;6.10;4.97;;;21.20;99.90;;;;;;5036644;28;20436;-60
2023/08/20 01:13:12;;;;;;;6.67;4.87;;;21.20;99.90;;;;;;5036458;28;20461;-61
2023/08/20 01:15:39;;;;;;;9.70;5.57;;;21.20;99.90;;;;;;5036593;28;20447;-61
2023/08/20 01:18:06;;;;;;;7.50;5.53;;;21.10;99.90;;;;;;5036210;28;20480;-61
2023/08/20 01:20:48;;;;;;;5.63;4.63;;;21.10;99.90;;;;;;5036176;28;20911;-62
2023/08/20 01:23:36;;;;;;;7.40;5.57;;;21.00;99.90;;;;;;5036137;28;20915;-62
2023/08/20 01:26:21;;;;;;;5.10;4.60;;;20.90;99.90;;;;;;5036036;28;20443;-61
2023/08/20 01:28:50;;;;;;;5.40;4.90;;;20.90;99.90;;;;;;5036327;28;20898;-62
2023/08/20 01:31:16;;;;;;;5.10;4.23;;;20.90;99.90;;;;;;5036579;28;20445;-61
2023/08/20 01:33:44;;;;;;;5.63;4.37;;;20.80;99.90;;;;;;5036587;28;20463;-62
2023/08/20 01:36:10;;;;;;;6.60;5.10;;;20.80;99.90;;;;;;5036635;28;20969;-61
2023/08/20 01:38:37;;;;;;;6.90;5.33;;;20.80;99.90;;;;;;5035834;28;20477;-61
2023/08/20 01:41:04;;;;;;;8.10;5.10;;;20.70;99.90;;;;;;5036493;28;20444;-62
2023/08/20 01:43:31;;;;;;;7.63;4.73;;;20.70;99.90;;;;;;5035545;28;20495;-61
2023/08/20 01:45:59;;;;;;;6.40;4.67;;;20.70;99.90;;;;;;5036013;28;20440;-61
2023/08/20 01:48:26;;;;;;;6.63;5.03;;;20.60;99.90;;;;;;5036244;28;20444;-61
2023/08/20 01:50:53;;;;;;;6.27;4.80;;;20.60;99.90;;;;;;5036003;28;20449;-61
2023/08/20 01:53:20;;;;;;;6.07;5.20;;;20.50;99.90;;;;;;5035723;28;20994;-61
2023/08/20 01:55:46;;;;;;;6.73;4.77;;;20.50;99.90;;;;;;5036060;28;20451;-61
2023/08/20 01:58:13;;;;;;;6.37;5.20;;;20.50;99.90;;;;;;5037123;28;20479;-60
2023/08/20 02:00:40;;;;;;;7.97;4.97;;;20.40;99.90;;;;;;5035459;28;20456;-60
2023/08/20 02:03:08;;;;;;;7.63;5.60;;;20.40;99.90;;;;;;5035671;28;20464;-61
2023/08/20 02:05:35;;;;;;;9.33;5.40;;;20.40;99.90;;;;;;5035329;28;20819;-61
2023/08/20 02:08:02;;;;;;;9.37;5.53;;;20.40;99.90;;;;;;5035539;28;20440;-61
2023/08/20 02:10:28;;;;;;;6.60;5.70;;;20.30;99.90;;;;;;5035726;28;20441;-61
2023/08/20 02:12:55;;;;;;;7.23;5.70;;;20.30;99.90;;;;;;5035388;28;20447;-61
2023/08/20 02:15:22;;;;;;;7.13;5.30;;;20.30;99.90;;;;;;5035794;28;20441;-61
2023/08/20 02:17:49;;;;;;;6.83;5.73;;;20.20;99.90;;;;;;5035480;28;20487;-61
2023/08/20 02:20:17;;;;;;;7.57;5.33;;;20.20;99.90;;;;;;5035380;28;20433;-61
2023/08/20 02:22:44;;;;;;;7.63;6.27;;;20.20;99.90;;;;;;5034809;28;20970;-62
2023/08/20 02:25:10;;;;;;;7.20;5.67;;;20.10;99.90;;;;;;5035185;28;20433;-60
2023/08/20 02:27:37;;;;;;;10.53;7.00;;;20.10;99.90;;;;;;5034875;28;20441;-61
2023/08/20 02:30:05;;;;;;;7.60;5.80;;;20.00;99.90;;;;;;5034999;28;20436;-60
2023/08/20 02:32:33;;;;;;;9.40;6.77;;;20.00;99.90;;;;;;5034657;28;20947;-61
2023/08/20 02:35:00;;;;;;;7.50;6.80;;;20.00;99.90;;;;;;5034870;28;20914;-61
2023/08/20 02:37:28;;;;;;;9.60;6.77;;;20.00;99.90;;;;;;5039699;28;20477;-60
2023/08/20 02:39:55;;;;;;;8.63;7.30;;;20.00;99.90;;;;;;5041593;28;20453;-61
2023/08/20 02:42:21;;;;;;;10.13;6.63;;;20.00;99.90;;;;;;5036532;28;20445;-61
2023/08/20 02:44:48;;;;;;;8.60;6.47;;;20.00;99.90;;;;;;5036487;28;20806;-61
2023/08/20 02:47:15;;;;;;;6.80;6.20;;;20.00;99.90;;;;;;5035260;28;20441;-61
2023/08/20 02:49:42;;;;;;;11.07;6.57;;;20.00;99.90;;;;;;5035071;28;20444;-62
2023/08/20 02:52:08;;;;;;;7.87;6.40;;;20.00;99.90;;;;;;5034359;28;20436;-61
2023/08/20 02:54:36;;;;;;;9.07;6.47;;;20.00;99.90;;;;;;5035075;28;20468;-61
2023/08/20 02:57:03;;;;;;;8.10;5.93;;;20.00;99.90;;;;;;5034352;28;20445;-61
2023/08/20 02:59:30;;;;;;;7.50;5.73;;;20.10;99.90;;;;;;5034827;28;20445;-61
2023/08/20 03:01:57;;;;;;;9.70;5.53;;;20.00;99.90;;;;;;5034396;28;20437;-61
2023/08/20 03:04:23;;;;;;;9.30;7.00;;;20.00;99.90;;;;;;5034107;28;20472;-61
2023/08/20 03:06:50;;;;;;;12.33;6.20;;;20.00;99.90;;;;;;5034133;28;20814;-60
2023/08/20 03:09:17;;;;;;;7.33;5.83;;;20.00;99.90;;;;;;5034688;28;20819;-60
2023/08/20 03:11:45;;;;;;;9.70;5.73;;;19.90;99.90;;;;;;5034428;28;20946;-60
2023/08/20 03:14:12;;;;;;;9.57;6.60;;;19.90;99.90;;;;;;5034208;28;20464;-61
2023/08/20 03:16:38;;;;;;;10.30;5.83;;;19.90;99.90;;;;;;5034359;28;20830;-60
2023/08/20 03:19:05;;;;;;;8.03;5.70;;;19.80;99.90;;;;;;5034162;28;20489;-60
2023/08/20 03:21:32;;;;;;;8.93;5.40;;;19.70;99.90;;;;;;5034132;28;20445;-62
2023/08/20 03:23:59;;;;;;;10.30;5.40;;;19.70;99.90;;;;;;5033613;28;20473;-61
2023/08/20 03:26:25;;;;;;;10.07;5.57;;;19.70;99.90;;;;;;5034619;28;20452;-61
2023/08/20 03:28:53;;;;;;;7.97;5.93;;;19.80;99.90;;;;;;5034047;28;20469;-61
2023/08/20 03:31:20;;;;;;;11.10;5.80;;;19.80;99.90;;;;;;5033732;28;20445;-61
2023/08/20 03:33:47;;;;;;;6.30;5.43;;;19.80;99.90;;;;;;5033591;28;20836;-61
2023/08/20 03:36:14;;;;;;;8.90;5.50;;;19.70;99.90;;;;;;5033601;28;20441;-61
2023/08/20 03:38:40;;;;;;;11.63;6.37;;;19.70;99.90;;;;;;5034518;28;20484;-61
2023/08/20 03:41:07;;;;;;;9.90;5.70;;;19.70;99.90;;;;;;5033764;28;20820;-61
2023/08/20 03:43:34;;;;;;;8.03;6.87;;;19.70;99.90;;;;;;5033553;28;20468;-62
2023/08/20 03:46:03;;;;;;;10.63;6.17;;;19.70;99.90;;;;;;5034398;28;20540;-60
2023/08/20 03:48:29;;;;;;;7.63;6.77;;;19.70;99.90;;;;;;5034236;28;20506;-61
2023/08/20 03:50:57;;;;;;;8.17;6.13;;;19.70;99.90;;;;;;5033678;28;20444;-61
2023/08/20 03:53:23;;;;;;;6.97;6.03;;;19.70;99.90;;;;;;5033596;28;20461;-62
2023/08/20 03:55:51;;;;;;;11.00;5.67;;;19.60;99.90;;;;;;5033838;28;20449;-61
2023/08/20 03:58:18;;;;;;;8.87;6.10;;;19.60;99.90;;;;;;5033634;28;20852;-62
2023/08/20 04:00:45;;;;;;;6.60;5.53;;;19.60;99.90;;;;;;5033520;28;20927;-60
2023/08/20 04:03:14;;;;;;;7.30;5.67;;;19.60;99.90;;;;;;5033238;28;20468;-60
2023/08/20 04:05:41;;;;;;;8.50;6.07;;;19.50;99.90;;;;;;5033815;28;20567;-61
2023/08/20 04:08:07;;;;;;;6.70;5.70;;;19.50;99.90;;;;;;5033833;28;20524;-61
2023/08/20 04:12:07;;;;;;;6.50;5.67;;;19.50;99.90;;;;;;5092392;27;20947;-62
2023/08/20 04:14:34;;;;;;;6.53;5.00;;;19.50;99.90;;;;;;5091569;28;20862;-61
2023/08/20 04:17:00;;;;;;;5.47;4.63;;;19.50;99.90;;;;;;5091917;28;20442;-62
2023/08/20 04:19:27;;;;;;;6.53;4.87;;;19.60;99.90;;;;;;5091139;28;20434;-62
2023/08/20 04:21:54;;;;;;;7.00;4.90;;;19.50;99.90;;;;;;5091570;28;20476;-61
2023/08/20 04:24:21;;;;;;;8.57;5.10;;;19.60;99.90;;;;;;5091660;28;20454;-62
2023/08/20 04:26:47;;;;;;;7.00;5.00;;;19.50;99.90;;;;;;5090787;28;20442;-61
2023/08/20 04:29:16;;;;;;;8.40;4.67;;;19.50;99.90;;;;;;5090760;28;20442;-62
2023/08/20 04:31:42;;;;;;;8.20;4.80;;;19.50;99.90;;;;;;5090845;28;20557;-61
2023/08/20 04:34:09;;;;;;;5.33;4.70;;;19.50;99.90;;;;;;5090799;28;20985;-62
2023/08/20 04:36:36;;;;;;;5.63;5.03;;;19.50;99.90;;;;;;5090857;28;20445;-61
2023/08/20 04:39:04;;;;;;;7.20;4.87;;;19.50;99.90;;;;;;5090562;28;20446;-62
2023/08/20 04:41:31;;;;;;;5.70;4.90;;;19.60;99.90;;;;;;5090850;28;20438;-61
2023/08/20 04:43:57;;;;;;;8.07;4.93;;;19.60;99.90;;;;;;5090361;28;21002;-63
2023/08/20 04:46:25;;;;;;;9.23;4.93;;;19.60;99.90;;;;;;5090705;28;20434;-62
2023/08/20 04:48:52;;;;;;;6.60;5.07;;;19.50;99.90;;;;;;5090616;28;20441;-61
2023/08/20 04:51:19;;;;;;;6.93;4.67;;;19.50;99.90;;;;;;5089905;28;20866;-62
2023/08/20 04:53:47;;;;;;;9.10;5.10;;;19.50;99.90;;;;;;5090136;28;20566;-61
2023/08/20 04:56:14;;;;;;;5.50;4.60;;;19.50;99.90;;;;;;5090177;28;20481;-61
2023/08/20 04:58:40;;;;;;;6.07;4.20;;;19.70;99.90;;;;;;5090148;28;20446;-62
2023/08/20 05:01:08;;;;;;;5.43;4.60;;;19.80;99.90;;;;;;5089764;28;20437;-61
2023/08/20 05:03:36;;;;;;;5.10;4.60;;;20.00;99.90;;;;;;5089901;28;20458;-60
2023/08/20 05:06:04;;;;;;;6.50;4.70;;;20.20;99.90;;;;;;5090385;28;20453;-61
2023/08/20 05:08:31;;;;;;;6.63;4.80;;;20.40;99.90;;;;;;5090523;28;20468;-61
2023/08/20 05:10:57;;;;;;;8.20;4.70;;;20.60;99.90;;;;;;5089675;28;20514;-60
2023/08/20 05:13:24;;;;;;;5.63;4.00;;;20.80;99.90;;;;;;5090073;28;20458;-62
2023/08/20 05:15:51;;;;;;;4.70;4.30;;;21.00;99.90;;;;;;5090728;28;20438;-61
2023/08/20 05:18:18;;;;;;;5.00;4.50;;;21.00;99.90;;;;;;5089826;28;20449;-62
2023/08/20 05:20:46;;;;;;;5.93;4.30;;;21.20;99.90;;;;;;5089792;28;20441;-60
2023/08/20 05:23:12;;;;;;;8.60;4.37;;;21.30;99.90;;;;;;5078473;28;20463;-62
2023/08/20 05:25:40;;;;;;;4.30;3.80;;;21.30;99.90;;;;;;5099946;22;21017;-61
2023/08/20 05:28:07;;;;;;;7.40;4.30;;;21.30;99.90;;;;;;5056360;28;20428;-62
2023/08/20 05:30:35;;;;;;;6.80;4.30;;;21.30;99.90;;;;;;5055415;28;20487;-61
2023/08/20 05:33:01;;;;;;;7.23;4.90;;;21.30;99.90;;;;;;5055717;28;20446;-61
2023/08/20 05:35:28;;;;;;;5.80;4.30;;;21.30;99.90;;;;;;5055445;28;20463;-61
2023/08/20 05:37:56;;;;;;;5.47;4.50;;;21.40;99.90;;;;;;5055852;28;20447;-60
2023/08/20 05:40:23;;;;;;;5.40;3.67;;;21.40;99.90;;;;;;5055561;28;20443;-60
2023/08/20 05:42:50;;;;;;;8.60;4.50;;;21.40;99.90;;;;;;5055621;28;20444;-60
2023/08/20 05:45:16;;;;;;;4.30;3.90;;;21.40;99.90;;;;;;5055514;28;20456;-61
2023/08/20 05:47:43;;;;;;;7.67;4.77;;;21.40;99.90;;;;;;5055912;28;20930;-62
2023/08/20 05:50:10;;;;;;;6.30;5.10;;;21.40;99.90;;;;;;5055379;28;20455;-62
2023/08/20 05:52:37;;;;;;;6.10;4.40;;;21.40;99.90;;;;;;5055322;28;20961;-62
2023/08/20 05:55:06;;;;;;;6.60;4.70;;;21.40;99.90;;;;;;5055525;28;20538;-62
2023/08/20 05:57:33;;;;;;;4.77;4.27;;;21.40;99.90;;;;;;5055133;28;20451;-62
2023/08/20 06:00:00;;;;;;;5.60;3.93;;;21.50;99.90;;;;;;5055543;28;20451;-62
2023/08/20 06:02:26;;;;;;;6.83;4.50;;;21.60;99.90;;;;;;5055410;28;20459;-62
2023/08/20 06:04:53;;;;;;;6.73;4.00;;;21.60;99.90;;;;;;5054912;28;20466;-62
2023/08/20 06:07:20;;;;;;;6.00;3.77;;;21.50;99.90;;;;;;5055553;28;20435;-62
2023/08/20 06:09:46;;;;;;;5.33;3.43;;;21.50;99.90;;;;;;5054980;28;20922;-62
2023/08/20 06:12:15;;;;;;;5.20;4.23;;;21.50;99.90;;;;;;5054938;28;21044;-63
2023/08/20 06:14:41;;;;;;;6.00;4.30;;;21.60;99.90;;;;;;5055530;28;20444;-63
2023/08/20 06:17:08;;;;;;;4.60;3.70;;;21.70;99.90;;;;;;5055312;28;20436;-62
2023/08/20 06:19:35;;;;;;;5.47;3.40;;;21.70;99.90;;;;;;5055343;28;20455;-63
2023/08/20 06:22:02;;;;;;;4.13;3.60;;;21.80;99.90;;;;;;5054488;28;20439;-63
2023/08/20 06:24:29;;;;;;;5.80;4.13;;;21.90;99.90;;;;;;5055065;28;20494;-62
2023/08/20 06:26:56;;;;;;;4.63;4.23;;;22.00;99.90;;;;;;5055224;28;20494;-61
2023/08/20 06:29:24;;;;;;;4.60;3.87;;;22.10;99.90;;;;;;5055267;28;20443;-62
2023/08/20 06:31:51;;;;;;;5.37;3.37;;;22.30;99.90;;;;;;5054908;28;20516;-62
2023/08/20 06:34:18;;;;;;;3.80;2.97;;;22.50;99.90;;;;;;5053597;28;20513;-63
2023/08/20 06:36:45;;;;;;;5.80;4.10;;;22.60;99.90;;;;;;5054060;28;20474;-62
2023/08/20 06:39:11;;;;;;;6.40;3.90;;;22.60;99.90;;;;;;5054355;28;20447;-63
2023/08/20 06:41:38;;;;;;;4.90;3.57;;;22.60;99.90;;;;;;5054357;28;20436;-62
2023/08/20 06:44:05;;;;;;;5.53;3.97;;;22.60;99.90;;;;;;5054660;28;20455;-62
2023/08/20 06:46:34;;;;;;;4.27;3.23;;;22.60;99.90;;;;;;5054030;28;20551;-62
2023/08/20 06:49:01;;;;;;;6.30;3.60;;;22.60;99.90;;;;;;5054218;28;20450;-62
2023/08/20 06:51:28;;;;;;;5.23;3.13;;;22.60;99.90;;;;;;5053809;28;20511;-62
2023/08/20 06:53:56;;;;;;;8.00;2.90;;;22.70;99.90;;;;;;5054293;28;20448;-62
2023/08/20 06:56:23;;;;;;;4.37;3.40;;;22.80;99.90;;;;;;5054325;28;20464;-61
2023/08/20 06:58:49;;;;;;;8.03;3.07;;;22.90;99.90;;;;;;5054967;28;20447;-62
2023/08/20 07:01:16;;;;;;;5.70;3.57;;;22.90;99.90;;;;;;5054631;28;20936;-63
2023/08/20 07:03:45;;;;;;;4.63;2.80;;;22.90;99.90;;;;;;5054051;28;20436;-63
2023/08/20 07:06:14;;;;;;;7.77;3.00;;;22.90;99.90;;;;;;5060240;28;20533;-61
2023/08/20 07:08:41;;;;;;;5.37;2.93;;;23.10;99.90;;;;;;5058106;28;20452;-63
2023/08/20 07:11:08;;;;;;;5.83;3.10;;;23.20;99.90;;;;;;5056483;28;20890;-63
2023/08/20 07:13:35;;;;;;;8.70;3.47;;;23.30;99.90;;;;;;5056242;28;20444;-63
2023/08/20 07:16:02;;;;;;;4.93;3.47;;;23.30;99.90;;;;;;5055215;28;20464;-64
2023/08/20 07:18:28;;;;;;;5.40;3.00;;;23.50;99.90;;;;;;5055106;28;20514;-65
2023/08/20 07:20:57;;;;;;;6.00;3.27;;;23.60;99.70;;;;;;5054833;28;20531;-63
2023/08/20 07:23:24;;;;;;;6.90;3.40;;;23.60;99.00;;;;;;5055272;28;20470;-65
2023/08/20 07:25:52;;;;;;;8.67;3.47;;;23.60;98.50;;;;;;5053954;28;21007;-62
2023/08/20 07:28:26;;;;;;;4.43;2.67;;;23.70;98.20;;;;;;5053988;28;20453;-62
2023/08/20 07:30:53;;;;;;;4.27;2.90;;;23.80;97.80;;;;;;5054362;28;20482;-62
2023/08/20 07:33:20;;;;;;;3.50;2.80;;;23.90;97.10;;;;;;5053486;28;20450;-63
2023/08/20 07:35:46;;;;;;;4.33;2.90;;;23.90;96.50;;;;;;5053548;28;20834;-61
2023/08/20 07:38:14;;;;;;;4.00;2.80;;;23.80;95.70;;;;;;5053859;28;20534;-62
2023/08/20 07:40:41;;;;;;;5.47;3.10;;;23.80;95.50;;;;;;5053561;28;20822;-62
2023/08/20 07:43:08;;;;;;;5.90;2.50;;;23.70;95.30;;;;;;5053518;28;20439;-63
2023/08/20 07:45:35;;;;;;;5.10;2.73;;;23.90;95.00;;;;;;5053134;28;20474;-63
2023/08/20 07:48:01;;;;;;;3.67;2.70;;;24.00;94.50;;;;;;5053310;28;20448;-62
2023/08/20 07:50:28;;;;;;;4.93;2.50;;;24.20;93.90;;;;;;5052854;28;20934;-62
2023/08/20 07:52:55;;;;;;;4.87;3.23;;;24.30;93.50;;;;;;5053235;28;20484;-63
2023/08/20 07:55:23;;;;;;;3.40;2.77;;;24.40;93.20;;;;;;5052888;28;20455;-63
2023/08/20 07:57:52;;;;;;;6.10;3.13;;;24.40;93.10;;;;;;5053038;28;20448;-63
2023/08/20 08:00:19;;;;;;;3.67;2.80;;;24.40;92.70;;;;;;5052868;28;20877;-62
2023/08/20 08:02:46;;;;;;;2.73;2.47;;;24.50;92.80;;;;;;5053142;28;20964;-62
2023/08/20 08:05:14;;;;;;;4.17;2.73;;;24.50;92.60;;;;;;5054054;28;20826;-62
2023/08/20 08:07:40;;;;;;;3.47;2.70;;;24.70;92.20;;;;;;5053539;28;20476;-61
2023/08/20 08:10:08;;;;;;;4.43;2.93;;;24.70;91.80;;;;;;5053444;28;20440;-61
2023/08/20 08:12:36;;;;;;;4.77;3.47;;;24.80;91.60;;;;;;5053648;28;20876;-61
2023/08/20 08:15:04;;;;;;;6.63;3.17;;;24.90;91.30;;;;;;5053741;28;20492;-62
2023/08/20 08:17:30;;;;;;;5.33;2.90;;;25.00;91.10;;;;;;5053334;28;20819;-61
2023/08/20 08:19:58;;;;;;;7.50;3.40;;;25.10;90.70;;;;;;5053358;28;20933;-64
2023/08/20 08:22:25;;;;;;;6.70;4.10;;;25.30;90.40;;;;;;5053651;28;20493;-63
2023/08/20 08:24:51;;;;;;;6.30;3.50;;;25.40;89.80;;;;;;5053548;28;20487;-64
2023/08/20 08:27:18;;;;;;;4.13;2.57;;;25.50;88.80;;;;;;5053503;28;20432;-67
2023/08/20 08:29:46;;;;;;;3.73;2.67;;;25.60;87.50;;;;;;5054779;28;20851;-65
2023/08/20 08:32:13;;;;;;;5.00;3.10;;;25.70;86.10;;;;;;5054673;28;20480;-66
2023/08/20 08:34:40;;;;;;;4.00;2.73;;;25.70;85.20;;;;;;5053891;28;20950;-64
2023/08/20 08:37:07;;;;;;;5.60;3.10;;;25.80;84.30;;;;;;5053301;28;20440;-65
2023/08/20 08:39:33;;;;;;;5.73;2.93;;;25.90;83.30;;;;;;5055194;28;20459;-66
2023/08/20 08:42:04;;;;;;;3.37;2.80;;;25.90;82.40;;;;;;5054522;28;20790;-65
2023/08/20 08:44:33;;;;;;;5.17;3.30;;;26.00;81.60;;;;;;5054359;28;20432;-65
2023/08/20 08:47:02;;;;;;;4.50;2.57;;;26.10;81.10;;;;;;5054326;28;20489;-66
2023/08/20 08:49:30;;;;;;;3.40;2.60;;;26.20;80.30;;;;;;5052883;28;21000;-65
2023/08/20 08:51:57;;;;;;;3.63;2.93;;;26.30;79.40;;;;;;5053202;28;20482;-66
2023/08/20 08:54:25;;;;;;;6.43;3.87;;;26.40;78.00;;;;;;5055038;28;20451;-67
2023/08/20 08:56:52;;;;;;;4.17;3.30;;;26.40;77.10;;;;;;5053704;28;20466;-66
2023/08/20 08:59:19;;;;;;;3.10;2.80;;;26.50;76.60;;;;;;5057304;28;20435;-66
2023/08/20 09:01:46;;;;;;;4.67;3.20;;;26.50;75.80;;;;;;5058372;28;20432;-66
2023/08/20 09:04:14;;;;;;;6.80;4.63;;;26.50;75.40;;;;;;5057513;28;20448;-65
2023/08/20 09:06:47;;;;;;;3.93;2.90;;;26.50;75.30;;;;;;5056919;28;20468;-66
2023/08/20 09:09:14;;;;;;;3.37;2.97;;;26.70;74.80;;;;;;5057841;28;20839;-66
2023/08/20 09:11:41;;;;;;;3.73;2.50;;;26.70;73.80;;;;;;5057638;28;20898;-66
2023/08/20 09:14:08;;;;;;;6.90;3.10;;;26.60;72.50;;;;;;5057928;28;20958;-66
2023/08/20 09:16:35;;;;;;;3.27;2.63;;;26.50;72.10;;;;;;5058674;28;20993;-67
2023/08/20 09:19:02;;;;;;;3.03;2.73;;;26.50;71.90;;;;;;5058116;28;20448;-66
2023/08/20 09:21:30;;;;;;;3.40;2.70;;;26.50;71.60;;;;;;5059151;28;20444;-67
2023/08/20 09:23:57;;;;;;;3.83;3.20;;;26.60;71.20;;;;;;5058164;28;20484;-66
2023/08/20 09:26:24;;;;;;;3.67;2.60;;;26.80;70.30;;;;;;5057852;28;20472;-66
2023/08/20 09:28:51;;;;;;;3.10;2.13;;;26.90;69.40;;;;;;5057529;28;20448;-66
2023/08/20 09:31:18;;;;;;;2.50;2.10;;;27.00;68.50;;;;;;5057528;28;20471;-65
2023/08/20 09:33:51;;;;;;;4.70;2.20;;;27.10;67.50;;;;;;5056594;28;20946;-67
2023/08/20 09:36:18;;;;;;;3.80;2.50;;;27.20;66.90;;;;;;5058819;28;20460;-66
2023/08/20 09:38:46;;;;;;;4.23;2.37;;;27.10;66.20;;;;;;5055917;28;20468;-66
2023/08/20 09:41:13;;;;;;;2.80;2.20;;;27.10;65.70;;;;;;5055943;28;20535;-65
2023/08/20 09:43:41;;;;;;;3.57;2.50;;;27.10;65.70;;;;;;5056551;28;20440;-66
2023/08/20 09:46:11;;;;;;;5.97;2.10;;;27.30;65.20;;;;;;5056340;28;20978;-66
2023/08/20 09:48:42;;;;;;;2.50;2.30;;;27.30;64.10;;;;;;5056888;28;20440;-66
2023/08/20 09:51:12;;;;;;;4.03;2.73;;;27.20;64.10;;;;;;5057269;28;20440;-65
2023/08/20 09:53:45;;;;;;;3.47;2.87;;;27.20;63.60;;;;;;5057278;28;20480;-67
2023/08/20 09:56:21;;;;;;;3.87;2.17;;;27.20;63.60;;;;;;5056649;28;20985;-66
2023/08/20 09:58:49;;;;;;;3.07;2.50;;;27.40;63.40;;;;;;5057334;28;20416;-66
2023/08/20 10:01:17;;;;;;;3.77;2.63;;;27.60;62.80;;;;;;5056853;28;20956;-66
2023/08/20 10:03:44;;;;;;;4.33;2.83;;;27.60;61.90;;;;;;5056573;28;20440;-64
2023/08/20 10:06:12;;;;;;;5.40;2.43;;;27.70;61.20;;;;;;5056170;28;20455;-67
2023/08/20 10:08:39;;;;;;;2.90;2.03;;;27.80;60.70;;;;;;5056490;28;20447;-67
2023/08/20 10:11:06;;;;;;;2.93;2.43;;;27.80;59.80;;;;;;5056603;28;20446;-66
2023/08/20 10:13:35;;;;;;;3.10;2.80;;;27.80;59.30;;;;;;5056145;28;20472;-65
2023/08/20 10:16:02;;;;;;;5.00;2.57;;;27.70;59.20;;;;;;5055003;28;20969;-65
2023/08/20 10:18:29;;;;;;;3.33;2.23;;;27.80;59.10;;;;;;5055317;28;20444;-65
2023/08/20 10:20:58;;;;;;;5.17;2.30;;;27.80;58.70;;;;;;5055146;28;20960;-65
2023/08/20 10:23:25;;;;;;;4.87;2.50;;;27.90;58.20;;;;;;5055147;28;20440;-65
2023/08/20 10:25:53;;;;;;;5.73;2.30;;;27.90;58.00;;;;;;5054689;28;20487;-66
2023/08/20 10:28:22;;;;;;;3.60;2.53;;;27.90;57.80;;;;;;5054523;28;20778;-66
2023/08/20 10:31:08;;;;;;;3.57;2.10;;;28.00;58.10;;;;;;5054666;28;20933;-65
2023/08/20 10:33:36;;;;;;;5.20;2.87;;;28.20;58.10;;;;;;5054822;28;20475;-66
2023/08/20 10:36:10;;;;;;;2.63;1.87;;;28.50;57.50;;;;;;5055091;28;20459;-66
2023/08/20 10:38:38;;;;;;;3.37;2.17;;;28.60;56.50;;;;;;5054717;28;20440;-66
2023/08/20 10:41:07;;;;;;;2.83;2.00;;;28.70;56.20;;;;;;5054464;28;20932;-66
2023/08/20 10:43:36;;;;;;;2.97;2.10;;;28.70;56.10;;;;;;5055914;28;20816;-66
2023/08/20 10:46:16;;;;;;;3.40;2.00;;;28.70;55.90;;;;;;5054583;28;20460;-65
2023/08/20 10:48:46;;;;;;;2.60;2.00;;;28.90;55.70;;;;;;5055327;28;20421;-64
2023/08/20 10:51:14;;;;;;;3.57;2.10;;;29.10;55.10;;;;;;5054985;28;20432;-67
2023/08/20 10:53:43;;;;;;;2.57;2.10;;;29.20;54.70;;;;;;5055055;28;20484;-66
2023/08/20 10:56:12;;;;;;;4.17;1.93;;;29.10;54.30;;;;;;5055211;28;20464;-65
2023/08/20 10:58:41;;;;;;;4.60;2.37;;;29.00;53.70;;;;;;5055957;28;20447;-66
2023/08/20 11:01:20;;;;;;;3.30;2.00;;;28.90;53.80;;;;;;5057202;28;20490;-66
2023/08/20 11:03:49;;;;;;;4.07;2.13;;;29.00;53.80;;;;;;5057274;28;20491;-67
2023/08/20 11:06:16;;;;;;;2.43;2.10;;;29.00;53.90;;;;;;5055693;28;20464;-66
2023/08/20 11:08:43;;;;;;;4.27;1.97;;;29.10;53.80;;;;;;5055694;28;20483;-65
2023/08/20 11:11:10;;;;;;;3.93;2.00;;;29.20;53.70;;;;;;5055268;28;20440;-66
2023/08/20 11:13:37;;;;;;;2.80;2.23;;;29.30;53.40;;;;;;5054628;28;20837;-66
2023/08/20 11:16:05;;;;;;;4.00;1.80;;;29.40;53.20;;;;;;5054637;28;20987;-65
2023/08/20 11:18:33;;;;;;;3.50;2.30;;;29.60;53.20;;;;;;5054670;28;20450;-67
2023/08/20 11:21:01;;;;;;;3.00;2.70;;;29.80;52.70;;;;;;5053794;28;20443;-65
2023/08/20 11:23:29;;;;;;;2.50;2.30;;;29.90;52.10;;;;;;5055245;28;20804;-67
2023/08/20 11:25:56;;;;;;;3.23;2.70;;;30.00;51.90;;;;;;5081929;22;20475;-65
2023/08/20 11:28:23;;;;;;;2.97;2.00;;;30.10;51.50;;;;;;5077147;28;20431;-65
2023/08/20 11:30:50;;;;;;;3.40;2.80;;;30.30;51.00;;;;;;5077857;28;20445;-64
2023/08/20 11:33:21;;;;;;;2.97;2.40;;;30.30;50.70;;;;;;5078611;28;20470;-65
2023/08/20 11:35:49;;;;;;;3.30;1.90;;;30.50;50.90;;;;;;5075935;28;20463;-64
2023/08/20 11:38:16;;;;;;;2.67;2.20;;;30.60;50.40;;;;;;5074406;28;20440;-64
2023/08/20 11:40:43;;;;;;;2.70;2.20;;;30.40;50.00;;;;;;5075044;28;20443;-65
2023/08/20 11:43:11;;;;;;;3.80;2.40;;;30.30;50.00;;;;;;5077466;28;20438;-63
2023/08/20 11:45:48;;;;;;;3.40;2.60;;;30.30;49.70;;;;;;5074751;28;20450;-62
2023/08/20 11:48:16;;;;;;;2.30;2.03;;;30.30;49.40;;;;;;5074677;28;20439;-62
2023/08/20 11:50:43;;;;;;;3.50;2.20;;;30.50;49.30;;;;;;5074318;28;20443;-62
2023/08/20 11:53:12;;;;;;;5.17;2.40;;;31.00;48.20;;;;;;5074715;28;20475;-62
2023/08/20 11:55:41;;;;;;;2.40;2.20;;;31.70;47.00;;;;;;5073879;28;20542;-62
2023/08/20 11:58:10;;;;;;;5.17;2.73;;;32.20;45.80;;;;;;5073328;28;20443;-61
2023/08/20 12:00:37;;;;;;;2.53;2.30;;;32.60;44.70;;;;;;5073253;28;20443;-62
2023/08/20 12:03:05;;;;;;;4.20;2.70;;;32.40;44.70;;;;;;5073338;28;20439;-63
2023/08/20 12:05:32;;;;;;;2.17;1.83;;;32.40;44.80;;;;;;5073064;28;20447;-63
2023/08/20 12:07:59;;;;;;;3.50;2.77;;;32.90;44.30;;;;;;5072945;28;20929;-62
2023/08/20 12:10:29;;;;;;;4.60;2.80;;;33.20;43.90;;;;;;5073320;28;20439;-64
2023/08/20 12:12:57;;;;;;;4.20;2.67;;;33.00;44.20;;;;;;5073975;28;20601;-63
2023/08/20 12:15:24;;;;;;;2.57;2.23;;;32.60;44.40;;;;;;5075418;28;20816;-62
2023/08/20 12:17:59;;;;;;;2.80;2.60;;;32.60;44.40;;;;;;5075477;28;20868;-64
2023/08/20 12:20:29;;;;;;;4.37;3.37;;;32.80;43.90;;;;;;5075271;28;20438;-62
2023/08/20 12:22:57;;;;;;;3.70;2.50;;;33.20;43.40;;;;;;5078283;28;20440;-63
2023/08/20 12:25:24;;;;;;;3.00;2.30;;;33.60;43.00;;;;;;5077649;28;20522;-63
2023/08/20 12:27:52;;;;;;;3.27;2.53;;;33.80;42.50;;;;;;5072875;28;20474;-62
2023/08/20 12:30:19;;;;;;;4.63;2.93;;;33.60;42.30;;;;;;5073060;28;20453;-62
2023/08/20 12:32:46;;;;;;;3.97;2.70;;;33.10;43.00;;;;;;5074656;28;20496;-63
2023/08/20 12:35:13;;;;;;;3.00;2.50;;;32.30;44.00;;;;;;5076889;28;20811;-62
2023/08/20 12:37:39;;;;;;;3.33;2.47;;;31.80;44.80;;;;;;5077099;28;20555;-62
2023/08/20 12:40:10;;;;;;;2.47;2.20;;;31.50;45.20;;;;;;5076741;28;20967;-63
2023/08/20 12:42:37;;;;;;;2.63;2.20;;;31.30;45.60;;;;;;5076894;28;20486;-63
2023/08/20 12:45:07;;;;;;;2.90;2.30;;;31.10;45.90;;;;;;5076462;28;20953;-63
2023/08/20 12:47:33;;;;;;;3.13;2.60;;;31.00;46.10;;;;;;5077259;28;20467;-64
2023/08/20 12:50:00;;;;;;;2.50;2.30;;;30.90;46.30;;;;;;5076925;28;20818;-66